Time;durP1;ratioP1;P1;durP2;ratioP2;P2;SDS_P1;SDS_P2;PMS_P1;PMS_P2;Temp;Humidity;BMP_temperature;BMP_pressure;BME280_temperature;BME280_humidity;BME280_pressure;Samples;Min_cycle;Max_cycle;Signal;HPM_P1;HPM_P2
2023/01/11 00:01:03;;;;;;;;;;;;;;;;;;5065738;28;20357;-67
2023/01/11 00:03:29;;;;;;;;;;;;;;;;;;5068432;28;19908;-66
2023/01/11 00:05:55;;;;;;;;;;;;;;;;;;5062149;28;19958;-65
2023/01/11 00:08:23;;;;;;;;;;;;;;;;;;5068653;28;20261;-66
2023/01/11 00:10:49;;;;;;;;;;;;;;;;;;5068689;28;20357;-66
2023/01/11 00:13:14;;;;;;;;;;;;;;;;;;5068678;28;19915;-67
2023/01/11 00:15:41;;;;;;;;;;;;;;;;;;5071349;28;19917;-68
2023/01/11 00:18:06;;;;;;;;;;;;;;;;;;5071957;28;20361;-67
2023/01/11 00:20:32;;;;;;;;;;;;;;;;;;5071704;28;19911;-67
2023/01/11 00:22:58;;;;;;;;;;;;;;;;;;5072726;28;19911;-67
2023/01/11 00:25:24;;;;;;;;;;;;;;;;;;5072113;28;19947;-66
2023/01/11 00:27:50;;;;;;;;;;;;;;;;;;5071760;28;20049;-68
2023/01/11 00:30:16;;;;;;;;;;;;;;;;;;5072464;28;19919;-68
2023/01/11 00:32:42;;;;;;;;;;;;;;;;;;5072045;28;19952;-67
2023/01/11 00:35:08;;;;;;;;;;;;;;;;;;5071965;28;19904;-67
2023/01/11 00:37:34;;;;;;;;;;;;;;;;;;5071925;28;19951;-67
2023/01/11 00:39:59;;;;;;;;;;;;;;;;;;5071322;28;19916;-66
2023/01/11 00:47:59;;;;;;;;;;;;;;;;;;5071756;28;19911;-67
2023/01/11 00:50:25;;;;;;;;;;;;;;;;;;5071622;28;19908;-68
2023/01/11 00:52:50;;;;;;;;;;;;;;;;;;5071550;28;19909;-67
2023/01/11 00:55:16;;;;;;;;;;;;;;;;;;5071456;28;19908;-66
2023/01/11 00:57:42;;;;;;;;;;;;;;;;;;5067843;28;20403;-67
2023/01/11 01:00:08;;;;;;;;;;;;;;;;;;5059649;28;19915;-66
2023/01/11 01:02:34;;;;;;;;;;;;;;;;;;5070882;28;20368;-67
2023/01/11 01:05:00;;;;;;;;;;;;;;;;;;5070773;28;19939;-67
2023/01/11 01:07:26;;;;;;;;;;;;;;;;;;5070919;28;19905;-66
2023/01/11 01:09:52;;;;;;;;;;;;;;;;;;5071099;28;19916;-67
2023/01/11 01:15:02;;;;;;;;;;;;;;;;;;5070965;28;20084;-67
2023/01/11 01:17:28;;;;;;;;;;;;;;;;;;5071500;28;19912;-67
2023/01/11 01:19:54;;;;;;;;;;;;;;;;;;5070819;28;19908;-67
2023/01/11 01:22:20;;;;;;;;;;;;;;;;;;5064892;28;19905;-66
2023/01/11 01:24:46;;;;;;;;;;;;;;;;;;5055384;28;19905;-66
2023/01/11 01:27:15;;;;;;;;;;;;;;;;;;5070362;28;19908;-66
2023/01/11 01:29:41;;;;;;;;;;;;;;;;;;5070194;28;20284;-67
2023/01/11 01:32:07;;;;;;;;;;;;;;;;;;5052532;28;19904;-66
2023/01/11 01:34:36;;;;;;;;;;;;;;;;;;5070643;28;19987;-66
2023/01/11 01:37:02;;;;;;;;;;;;;;;;;;5070618;28;20316;-67
2023/01/11 01:39:28;;;;;;;;;;;;;;;;;;5066067;28;19916;-67
2023/01/11 01:41:54;;;;;;;;;;;;;;;;;;5068824;28;19993;-68
2023/01/11 01:44:20;;;;;;;;;;;;;;;;;;5070684;28;19904;-67
2023/01/11 01:46:45;;;;;;;;;;;;;;;;;;5070699;28;19908;-66
2023/01/11 01:49:11;;;;;;;;;;;;;;;;;;5070397;28;19911;-66
2023/01/11 01:51:37;;;;;;;;;;;;;;;;;;5070378;28;19912;-66
2023/01/11 01:54:03;;;;;;;;;;;;;;;;;;5070157;28;19995;-66
2023/01/11 01:56:29;;;;;;;;;;;;;;;;;;5070537;28;19917;-66
2023/01/11 01:58:55;;;;;;;;;;;;;;;;;;5070293;28;19916;-67
2023/01/11 02:04:05;;;;;;;;;;;;;;;;;;5069510;28;19919;-66
2023/01/11 02:06:31;;;;;;;;;;;;;;;;;;5069587;28;19909;-66
2023/01/11 02:08:57;;;;;;;;;;;;;;;;;;5069995;28;19904;-68
2023/01/11 02:11:28;;;;;;;;;;;;;;;;;;5069792;28;19909;-67
2023/01/11 02:13:54;;;;;;;;;;;;;;;;;;5069660;28;20380;-67
2023/01/11 02:16:20;;;;;;;;;;;;;;;;;;5069775;28;19916;-67
2023/01/11 02:18:46;;;;;;;;;;;;;;;;;;5070044;28;19908;-67
2023/01/11 02:21:12;;;;;;;;;;;;;;;;;;5069651;28;19913;-68
2023/01/11 02:23:38;;;;;;;;;;;;;;;;;;5069896;28;19904;-67
2023/01/11 02:26:04;;;;;;;;;;;;;;;;;;5069749;28;19908;-67
2023/01/11 02:28:30;;;;;;;;;;;;;;;;;;5069148;28;19958;-67
2023/01/11 02:30:59;;;;;;;;;;;;;;;;;;5070013;28;19985;-67
2023/01/11 02:33:25;;;;;;;;;;;;;;;;;;5069289;28;20388;-67
2023/01/11 02:35:51;;;;;;;;;;;;;;;;;;5069193;28;19912;-67
2023/01/11 02:38:16;;;;;;;;;;;;;;;;;;5068242;28;19932;-67
2023/01/11 02:40:42;;;;;;;;;;;;;;;;;;5069373;28;19959;-66
2023/01/11 02:45:53;;;;;;;;;;;;;;;;;;5068183;28;19911;-67
2023/01/11 02:48:19;;;;;;;;;;;;;;;;;;5069539;28;19908;-67
2023/01/11 02:50:44;;;;;;;;;;;;;;;;;;5069051;28;19905;-67
2023/01/11 02:53:10;;;;;;;;;;;;;;;;;;5069296;28;19914;-66
2023/01/11 02:55:36;;;;;;;;;;;;;;;;;;5069448;28;19951;-67
2023/01/11 02:58:02;;;;;;;;;;;;;;;;;;5068357;28;19966;-67
2023/01/11 03:00:28;;;;;;;;;;;;;;;;;;5068875;28;19909;-67
2023/01/11 03:02:54;;;;;;;;;;;;;;;;;;5069220;28;19915;-67
2023/01/11 03:05:20;;;;;;;;;;;;;;;;;;5050764;28;19916;-67
2023/01/11 03:07:46;;;;;;;;;;;;;;;;;;5069183;28;20003;-67
2023/01/11 03:10:12;;;;;;;;;;;;;;;;;;5068902;28;19904;-67
2023/01/11 03:12:56;;;;;;;;;;;;;;;;;;5067559;28;20376;-67
2023/01/11 03:15:22;;;;;;;;;;;;;;;;;;5067008;28;19999;-66
2023/01/11 03:17:47;;;;;;;;;;;;;;;;;;5069101;28;20010;-67
2023/01/11 03:20:13;;;;;;;;;;;;;;;;;;5068828;28;19915;-67
2023/01/11 03:22:39;;;;;;;;;;;;;;;;;;5068330;28;19912;-67
2023/01/11 03:25:05;;;;;;;;;;;;;;;;;;5068312;28;19908;-67
2023/01/11 03:27:31;;;;;;;;;;;;;;;;;;5066965;28;19912;-67
2023/01/11 03:29:57;;;;;;;;;;;;;;;;;;5068802;28;20053;-68
2023/01/11 03:32:23;;;;;;;;;;;;;;;;;;5069112;28;19943;-67
2023/01/11 03:34:49;;;;;;;;;;;;;;;;;;5069434;28;20897;-67
2023/01/11 03:37:14;;;;;;;;;;;;;;;;;;5068617;28;19916;-67
2023/01/11 03:39:40;;;;;;;;;;;;;;;;;;5068342;28;19920;-68
2023/01/11 03:42:06;;;;;;;;;;;;;;;;;;5063168;28;19963;-67
2023/01/11 03:44:33;;;;;;;;;;;;;;;;;;5069138;28;19904;-67
2023/01/11 03:46:59;;;;;;;;;;;;;;;;;;5068777;28;19939;-67
2023/01/11 03:49:25;;;;;;;;;;;;;;;;;;5068975;28;20446;-67
2023/01/11 03:51:51;;;;;;;;;;;;;;;;;;5072912;28;19913;-67
2023/01/11 03:54:17;;;;;;;;;;;;;;;;;;5072417;28;19909;-67
2023/01/11 03:56:43;;;;;;;;;;;;;;;;;;5065971;28;19912;-67
2023/01/11 03:59:09;;;;;;;;;;;;;;;;;;5071942;28;20061;-67
2023/01/11 04:01:35;;;;;;;;;;;;;;;;;;5067410;28;19916;-68
2023/01/11 04:04:01;;;;;;;;;;;;;;;;;;5072631;28;19954;-67
2023/01/11 04:06:27;;;;;;;;;;;;;;;;;;5072337;28;20027;-68
2023/01/11 04:08:52;;;;;;;;;;;;;;;;;;5071769;28;19987;-67
2023/01/11 04:11:18;;;;;;;;;;;;;;;;;;5071627;28;19912;-67
2023/01/11 04:13:44;;;;;;;;;;;;;;;;;;5072165;28;19993;-67
2023/01/11 04:16:10;;;;;;;;;;;;;;;;;;5072228;28;20384;-67
2023/01/11 04:18:36;;;;;;;;;;;;;;;;;;5072407;28;19909;-67
2023/01/11 04:21:02;;;;;;;;;;;;;;;;;;5071077;28;19910;-67
2023/01/11 04:23:28;;;;;;;;;;;;;;;;;;5071879;28;19916;-67
2023/01/11 04:25:54;;;;;;;;;;;;;;;;;;5071984;28;19935;-67
2023/01/11 04:28:20;;;;;;;;;;;;;;;;;;5072180;28;20424;-67
2023/01/11 04:30:45;;;;;;;;;;;;;;;;;;5071984;28;20288;-68
2023/01/11 04:33:13;;;;;;;;;;;;;;;;;;5071542;28;19904;-67
2023/01/11 04:35:39;;;;;;;;;;;;;;;;;;5071703;28;19920;-68
2023/01/11 04:38:05;;;;;;;;;;;;;;;;;;5071600;28;19916;-67
2023/01/11 04:40:30;;;;;;;;;;;;;;;;;;5069838;28;19905;-67
2023/01/11 04:43:00;;;;;;;;;;;;;;;;;;5066821;28;20273;-67
2023/01/11 04:45:26;;;;;;;;;;;;;;;;;;5071576;28;19904;-66
2023/01/11 04:47:52;;;;;;;;;;;;;;;;;;5071766;28;19958;-67
2023/01/11 04:50:18;;;;;;;;;;;;;;;;;;5071601;28;19912;-67
2023/01/11 04:52:44;;;;;;;;;;;;;;;;;;5071252;28;20281;-67
2023/01/11 04:55:10;;;;;;;;;;;;;;;;;;4966290;28;20140;-67
2023/01/11 04:57:36;;;;;;;;;;;;;;;;;;4927611;28;19955;-67
2023/01/11 05:00:05;;;;;;;;;;;;;;;;;;5062996;28;20348;-68
2023/01/11 05:02:31;;;;;;;;;;;;;;;;;;5066069;28;20399;-67
2023/01/11 05:04:56;;;;;;;;;;;;;;;;;;5071428;28;19904;-68
2023/01/11 05:07:22;;;;;;;;;;;;;;;;;;5059153;28;19908;-67
2023/01/11 05:09:48;;;;;;;;;;;;;;;;;;5040411;28;20280;-67
2023/01/11 05:12:14;;;;;;;;;;;;;;;;;;5060344;28;19912;-66
2023/01/11 05:14:40;;;;;;;;;;;;;;;;;;5070629;28;20443;-67
2023/01/11 05:17:09;;;;;;;;;;;;;;;;;;5071305;28;19962;-67
2023/01/11 05:19:35;;;;;;;;;;;;;;;;;;5071105;28;19908;-68
2023/01/11 05:22:01;;;;;;;;;;;;;;;;;;5061997;28;20277;-67
2023/01/11 05:24:27;;;;;;;;;;;;;;;;;;5070961;28;20435;-68
2023/01/11 05:26:53;;;;;;;;;;;;;;;;;;5070812;28;19911;-67
2023/01/11 05:29:20;;;;;;;;;;;;;;;;;;4962669;28;20205;-68
2023/01/11 05:31:46;;;;;;;;;;;;;;;;;;4975447;28;19973;-68
2023/01/11 05:34:12;;;;;;;;;;;;;;;;;;4902438;28;20782;-68
2023/01/11 05:36:38;;;;;;;;;;;;;;;;;;4880116;28;19916;-67
2023/01/11 05:39:04;;;;;;;;;;;;;;;;;;4980853;28;19916;-68
2023/01/11 05:41:29;;;;;;;;;;;;;;;;;;5070186;28;19904;-68
2023/01/11 05:46:47;;;;;;;;;;;;;;;;;;5007846;28;20415;-67
2023/01/11 05:49:13;;;;;;;;;;;;;;;;;;5008081;28;20004;-67
2023/01/11 05:51:39;;;;;;;;;;;;;;;;;;5005822;28;19909;-67
2023/01/11 05:54:05;;;;;;;;;;;;;;;;;;5008281;28;19905;-67
2023/01/11 05:56:31;;;;;;;;;;;;;;;;;;5008007;28;20789;-67
2023/01/11 05:58:57;;;;;;;;;;;;;;;;;;5007578;28;19909;-67
2023/01/11 06:01:23;;;;;;;;;;;;;;;;;;4986994;28;20364;-66
2023/01/11 06:03:48;;;;;;;;;;;;;;;;;;4736155;28;20232;-66
2023/01/11 06:06:14;;;;;;;;;;;;;;;;;;4703802;28;20187;-66
2023/01/11 06:08:40;;;;;;;;;;;;;;;;;;4727778;28;20278;-67
2023/01/11 06:11:06;;;;;;;;;;;;;;;;;;4734978;28;20321;-67
2023/01/11 06:13:32;;;;;;;;;;;;;;;;;;4736424;28;20186;-66
2023/01/11 06:16:00;;;;;;;;;;;;;;;;;;4740795;28;20554;-67
2023/01/11 06:18:26;;;;;;;;;;;;;;;;;;4745076;28;20302;-66
2023/01/11 06:20:52;;;;;;;;;;;;;;;;;;4749721;28;20174;-67
2023/01/11 06:23:18;;;;;;;;;;;;;;;;;;4761153;28;20222;-66
2023/01/11 06:25:44;;;;;;;;;;;;;;;;;;4778718;28;21253;-67
2023/01/11 06:28:09;;;;;;;;;;;;;;;;;;4791657;28;20154;-67
2023/01/11 06:30:35;;;;;;;;;;;;;;;;;;4810576;28;20282;-67
2023/01/11 06:33:05;;;;;;;;;;;;;;;;;;4789176;28;20554;-67
2023/01/11 06:35:31;;;;;;;;;;;;;;;;;;4790115;28;20274;-67
2023/01/11 06:37:57;;;;;;;;;;;;;;;;;;4815183;28;20140;-67
2023/01/11 06:40:23;;;;;;;;;;;;;;;;;;4812216;28;20150;-68
2023/01/11 06:42:49;;;;;;;;;;;;;;;;;;4802449;28;20128;-68
2023/01/11 06:45:14;;;;;;;;;;;;;;;;;;4803676;28;20155;-67
2023/01/11 06:47:40;;;;;;;;;;;;;;;;;;4780998;28;20227;-67
2023/01/11 06:50:06;;;;;;;;;;;;;;;;;;4772795;28;20288;-67
2023/01/11 06:52:32;;;;;;;;;;;;;;;;;;4774043;28;20176;-66
2023/01/11 06:54:58;;;;;;;;;;;;;;;;;;4773363;28;20182;-68
2023/01/11 06:57:24;;;;;;;;;;;;;;;;;;4768559;28;20187;-67
2023/01/11 06:59:50;;;;;;;;;;;;;;;;;;4778039;28;20274;-67
2023/01/11 07:02:16;;;;;;;;;;;;;;;;;;4785410;28;20180;-67
2023/01/11 07:04:42;;;;;;;;;;;;;;;;;;4795150;28;20255;-66
2023/01/11 07:07:07;;;;;;;;;;;;;;;;;;4794703;28;20271;-66
2023/01/11 07:09:33;;;;;;;;;;;;;;;;;;4792534;28;20693;-66
2023/01/11 07:11:59;;;;;;;;;;;;;;;;;;4798129;28;20247;-66
2023/01/11 07:14:25;;;;;;;;;;;;;;;;;;4821920;28;20581;-66
2023/01/11 07:16:51;;;;;;;;;;;;;;;;;;4828119;28;20173;-66
2023/01/11 07:19:17;;;;;;;;;;;;;;;;;;4760347;28;20783;-67
2023/01/11 07:21:43;;;;;;;;;;;;;;;;;;4767894;28;20190;-67
2023/01/11 07:24:09;;;;;;;;;;;;;;;;;;4768167;28;20254;-68
2023/01/11 07:26:40;;;;;;;;;;;;;;;;;;4795113;28;20707;-67
2023/01/11 07:29:06;;;;;;;;;;;;;;;;;;4768783;28;20740;-65
2023/01/11 07:31:31;;;;;;;;;;;;;;;;;;4760199;28;20184;-65
2023/01/11 07:33:57;;;;;;;;;;;;;;;;;;4759889;28;20776;-66
2023/01/11 07:36:23;;;;;;;;;;;;;;;;;;4768993;28;20313;-64
2023/01/11 07:38:49;;;;;;;;;;;;;;;;;;4771845;28;21100;-63
2023/01/11 07:43:59;;;;;;;;;;;;;;;;;;4761142;28;20360;-67
2023/01/11 07:46:25;;;;;;;;;;;;;;;;;;4758647;28;20273;-67
2023/01/11 07:48:51;;;;;;;;;;;;;;;;;;4754465;28;20323;-66
2023/01/11 07:51:19;;;;;;;;;;;;;;;;;;4758276;28;20663;-67
2023/01/11 07:53:45;;;;;;;;;;;;;;;;;;4762887;28;20225;-67
2023/01/11 07:56:11;;;;;;;;;;;;;;;;;;4761589;28;20190;-68
2023/01/11 07:58:37;;;;;;;;;;;;;;;;;;4761980;28;20232;-67
2023/01/11 08:01:02;;;;;;;;;;;;;;;;;;4769132;28;20182;-67
2023/01/11 08:03:28;;;;;;;;;;;;;;;;;;4771907;28;20238;-67
2023/01/11 08:05:54;;;;;;;;;;;;;;;;;;4765337;28;20185;-67
2023/01/11 08:08:20;;;;;;;;;;;;;;;;;;4766305;28;20572;-67
2023/01/11 08:10:46;;;;;;;;;;;;;;;;;;4764491;28;20281;-67
2023/01/11 08:15:56;;;;;;;;;;;;;;;;;;4765714;28;20247;-67
2023/01/11 08:18:22;;;;;;;;;;;;;;;;;;4765950;28;20180;-67
2023/01/11 08:20:49;;;;;;;;;;;;;;;;;;4765632;28;20200;-68
2023/01/11 08:23:15;;;;;;;;;;;;;;;;;;4777244;28;20210;-67
2023/01/11 08:25:41;;;;;;;;;;;;;;;;;;4775165;28;20200;-66
2023/01/11 08:28:06;;;;;;;;;;;;;;;;;;4772185;28;20321;-67
2023/01/11 08:30:32;;;;;;;;;;;;;;;;;;4774562;28;20275;-67
2023/01/11 08:32:58;;;;;;;;;;;;;;;;;;4771657;28;20613;-67
2023/01/11 08:35:24;;;;;;;;;;;;;;;;;;4774250;28;20182;-66
2023/01/11 08:37:50;;;;;;;;;;;;;;;;;;4790936;28;20787;-66
2023/01/11 08:40:16;;;;;;;;;;;;;;;;;;4791900;28;20208;-67
2023/01/11 08:42:42;;;;;;;;;;;;;;;;;;4774466;28;20219;-66
2023/01/11 08:45:08;;;;;;;;;;;;;;;;;;4769593;28;20262;-68
2023/01/11 08:47:34;;;;;;;;;;;;;;;;;;4772581;28;20182;-65
2023/01/11 08:50:00;;;;;;;;;;;;;;;;;;4772014;28;20226;-67
2023/01/11 08:52:26;;;;;;;;;;;;;;;;;;4781513;28;20168;-67
2023/01/11 08:54:52;;;;;;;;;;;;;;;;;;4800305;28;20756;-68
2023/01/11 08:57:18;;;;;;;;;;;;;;;;;;4767778;28;20189;-66
2023/01/11 08:59:43;;;;;;;;;;;;;;;;;;4797499;28;20550;-67
2023/01/11 09:02:09;;;;;;;;;;;;;;;;;;4799218;28;20158;-67
2023/01/11 09:04:35;;;;;;;;;;;;;;;;;;4787233;28;20179;-67
2023/01/11 09:07:02;;;;;;;;;;;;;;;;;;4776897;28;20209;-68
2023/01/11 09:09:28;;;;;;;;;;;;;;;;;;4773854;28;20212;-67
2023/01/11 09:11:54;;;;;;;;;;;;;;;;;;4783274;28;20615;-67
2023/01/11 09:14:20;;;;;;;;;;;;;;;;;;4800941;28;20653;-67
2023/01/11 09:16:45;;;;;;;;;;;;;;;;;;4775530;28;20318;-66
2023/01/11 09:19:11;;;;;;;;;;;;;;;;;;4777977;28;20185;-67
2023/01/11 09:21:37;;;;;;;;;;;;;;;;;;4795471;28;20196;-67
2023/01/11 09:24:03;;;;;;;;;;;;;;;;;;4791444;28;20263;-68
2023/01/11 09:26:29;;;;;;;;;;;;;;;;;;4791236;28;20171;-67
2023/01/11 09:28:55;;;;;;;;;;;;;;;;;;4799334;28;20209;-67
2023/01/11 09:31:21;;;;;;;;;;;;;;;;;;4952466;28;20007;-68
2023/01/11 09:33:47;;;;;;;;;;;;;;;;;;5068739;28;19938;-68
2023/01/11 09:36:13;;;;;;;;;;;;;;;;;;4887689;28;20243;-69
2023/01/11 09:38:39;;;;;;;;;;;;;;;;;;4950434;28;19924;-69
2023/01/11 09:41:07;;;;;;;;;;;;;;;;;;5067776;28;19917;-69
2023/01/11 09:43:36;;;;;;;;;;;;;;;;;;5068983;28;20380;-70
2023/01/11 09:46:03;;;;;;;;;;;;;;;;;;5068207;28;19932;-71
2023/01/11 09:48:32;;;;;;;;;;;;;;;;;;5068514;28;19913;-71
2023/01/11 09:50:58;;;;;;;;;;;;;;;;;;5069103;28;19916;-72
2023/01/11 09:53:30;;;;;;;;;;;;;;;;;;5065426;28;19917;-71
2023/01/11 09:55:58;;;;;;;;;;;;;;;;;;5069031;28;19927;-70
2023/01/11 09:58:27;;;;;;;;;;;;;;;;;;5064944;28;19913;-71
2023/01/11 10:00:53;;;;;;;;;;;;;;;;;;5068708;28;19963;-70
2023/01/11 10:03:19;;;;;;;;;;;;;;;;;;5068899;28;19917;-70
2023/01/11 10:05:50;;;;;;;;;;;;;;;;;;5068554;28;19917;-71
2023/01/11 10:08:20;;;;;;;;;;;;;;;;;;5069142;28;20405;-72
2023/01/11 10:10:50;;;;;;;;;;;;;;;;;;5068296;28;19966;-71
2023/01/11 10:13:16;;;;;;;;;;;;;;;;;;5066106;28;20381;-72
2023/01/11 10:15:42;;;;;;;;;;;;;;;;;;5049126;28;20399;-71
2023/01/11 10:18:12;;;;;;;;;;;;;;;;;;5069399;28;19916;-71
2023/01/11 10:20:40;;;;;;;;;;;;;;;;;;5069141;28;19950;-71
2023/01/11 10:23:07;;;;;;;;;;;;;;;;;;5068879;28;20037;-70
2023/01/11 10:25:40;;;;;;;;;;;;;;;;;;5068021;28;19913;-71
2023/01/11 10:28:06;;;;;;;;;;;;;;;;;;5068677;28;20087;-70
2023/01/11 10:30:36;;;;;;;;;;;;;;;;;;5068760;28;20307;-70
2023/01/11 10:33:13;;;;;;;;;;;;;;;;;;5066287;28;19920;-71
2023/01/11 10:41:03;;;;;;;;;;;;;;;;;;5067491;28;19938;-70
2023/01/11 10:43:29;;;;;;;;;;;;;;;;;;5065018;28;19923;-70
2023/01/11 10:45:54;;;;;;;;;;;;;;;;;;5068281;28;19912;-68
2023/01/11 10:48:22;;;;;;;;;;;;;;;;;;5064016;28;19962;-69
2023/01/11 10:50:50;;;;;;;;;;;;;;;;;;5067180;28;20381;-69
2023/01/11 10:53:16;;;;;;;;;;;;;;;;;;5064756;28;19964;-69
2023/01/11 10:55:42;;;;;;;;;;;;;;;;;;5064639;28;20408;-68
2023/01/11 10:58:09;;;;;;;;;;;;;;;;;;5067117;28;19916;-68
2023/01/11 11:00:35;;;;;;;;;;;;;;;;;;5065389;28;19916;-69
2023/01/11 11:03:01;;;;;;;;;;;;;;;;;;5065331;28;19923;-70
2023/01/11 11:05:27;;;;;;;;;;;;;;;;;;5063278;28;19981;-69
2023/01/11 11:07:53;;;;;;;;;;;;;;;;;;5066619;28;20007;-70
2023/01/11 11:10:20;;;;;;;;;;;;;;;;;;5066296;28;19939;-69
2023/01/11 11:12:46;;;;;;;;;;;;;;;;;;5066463;28;20350;-69
2023/01/11 11:15:12;;;;;;;;;;;;;;;;;;5067189;28;20011;-69
2023/01/11 11:17:38;;;;;;;;;;;;;;;;;;5066650;28;19920;-66
2023/01/11 11:20:04;;;;;;;;;;;;;;;;;;5066756;28;20365;-69
2023/01/11 11:22:30;;;;;;;;;;;;;;;;;;5066238;28;19916;-71
2023/01/11 11:24:55;;;;;;;;;;;;;;;;;;5066121;28;19948;-69
2023/01/11 11:27:21;;;;;;;;;;;;;;;;;;5066333;28;19916;-69
2023/01/11 11:29:47;;;;;;;;;;;;;;;;;;5066117;28;19916;-70
2023/01/11 11:32:13;;;;;;;;;;;;;;;;;;5065609;28;19955;-70
2023/01/11 11:34:39;;;;;;;;;;;;;;;;;;5065875;28;19917;-69
2023/01/11 11:37:05;;;;;;;;;;;;;;;;;;5066134;28;19925;-70
2023/01/11 11:39:31;;;;;;;;;;;;;;;;;;5062752;28;19967;-73
2023/01/11 11:41:57;;;;;;;;;;;;;;;;;;5064107;28;20385;-71
2023/01/11 11:44:23;;;;;;;;;;;;;;;;;;5065825;28;20011;-70
2023/01/11 11:46:49;;;;;;;;;;;;;;;;;;5065953;28;19967;-70
2023/01/11 11:49:15;;;;;;;;;;;;;;;;;;5066640;28;20394;-71
2023/01/11 11:51:40;;;;;;;;;;;;;;;;;;5066146;28;19923;-71
2023/01/11 11:54:06;;;;;;;;;;;;;;;;;;5057936;28;19970;-72
2023/01/11 11:56:32;;;;;;;;;;;;;;;;;;5066208;28;19931;-71
2023/01/11 11:58:58;;;;;;;;;;;;;;;;;;5061234;28;19919;-70
2023/01/11 12:01:24;;;;;;;;;;;;;;;;;;5066545;28;19960;-71
2023/01/11 12:03:50;;;;;;;;;;;;;;;;;;5065904;28;19928;-70
2023/01/11 12:06:16;;;;;;;;;;;;;;;;;;5065906;28;19912;-71
2023/01/11 12:08:42;;;;;;;;;;;;;;;;;;5065897;28;19917;-70
2023/01/11 12:11:08;;;;;;;;;;;;;;;;;;5065876;28;19925;-69
2023/01/11 12:13:34;;;;;;;;;;;;;;;;;;5065931;28;20300;-70
2023/01/11 12:16:00;;;;;;;;;;;;;;;;;;5069719;28;20019;-71
2023/01/11 12:18:25;;;;;;;;;;;;;;;;;;5069826;28;19977;-72
2023/01/11 12:20:51;;;;;;;;;;;;;;;;;;5069738;28;19916;-72
2023/01/11 12:23:17;;;;;;;;;;;;;;;;;;5069909;28;19936;-72
2023/01/11 12:25:43;;;;;;;;;;;;;;;;;;5069793;28;20007;-73
2023/01/11 12:28:09;;;;;;;;;;;;;;;;;;5069812;28;20328;-71
2023/01/11 12:30:35;;;;;;;;;;;;;;;;;;5069643;28;19966;-72
2023/01/11 12:33:01;;;;;;;;;;;;;;;;;;5068748;28;20300;-73
2023/01/11 12:35:27;;;;;;;;;;;;;;;;;;5065595;28;19963;-70
2023/01/11 12:37:53;;;;;;;;;;;;;;;;;;5027314;28;20503;-72
2023/01/11 12:40:19;;;;;;;;;;;;;;;;;;5047990;28;19966;-71
2023/01/11 12:42:44;;;;;;;;;;;;;;;;;;5049692;28;19917;-71
2023/01/11 12:45:10;;;;;;;;;;;;;;;;;;5049483;28;22866;-71
2023/01/11 12:47:36;;;;;;;;;;;;;;;;;;5049155;28;19955;-72
2023/01/11 12:50:02;;;;;;;;;;;;;;;;;;5049796;28;19932;-70
2023/01/11 12:52:28;;;;;;;;;;;;;;;;;;5046615;28;20007;-72
2023/01/11 12:54:54;;;;;;;;;;;;;;;;;;4927905;28;20129;-71
2023/01/11 12:57:20;;;;;;;;;;;;;;;;;;4909949;28;20286;-72
2023/01/11 12:59:46;;;;;;;;;;;;;;;;;;4865015;28;20756;-70
2023/01/11 13:02:12;;;;;;;;;;;;;;;;;;4747328;28;20183;-68
2023/01/11 13:04:38;;;;;;;;;;;;;;;;;;4781098;28;19962;-68
2023/01/11 13:07:04;;;;;;;;;;;;;;;;;;5035945;28;19917;-71
2023/01/11 13:09:29;;;;;;;;;;;;;;;;;;4963806;28;20206;-70
2023/01/11 13:11:55;;;;;;;;;;;;;;;;;;4847034;28;20262;-70
2023/01/11 13:14:21;;;;;;;;;;;;;;;;;;4939547;28;20154;-69
2023/01/11 13:16:47;;;;;;;;;;;;;;;;;;4865919;28;20019;-64
2023/01/11 13:19:13;;;;;;;;;;;;;;;;;;5049337;28;20012;-64
2023/01/11 13:21:42;;;;;;;;;;;;;;;;;;5048213;28;19971;-63
2023/01/11 13:24:08;;;;;;;;;;;;;;;;;;5048176;28;19974;-65
2023/01/11 13:26:34;;;;;;;;;;;;;;;;;;5046345;28;19954;-64
2023/01/11 13:28:59;;;;;;;;;;;;;;;;;;5048884;28;19913;-65
2023/01/11 13:31:25;;;;;;;;;;;;;;;;;;5047078;28;20007;-64
2023/01/11 13:33:51;;;;;;;;;;;;;;;;;;5047246;28;19952;-65
2023/01/11 13:36:17;;;;;;;;;;;;;;;;;;5048359;28;19951;-64
2023/01/11 13:38:43;;;;;;;;;;;;;;;;;;5060833;28;19995;-65
2023/01/11 13:41:09;;;;;;;;;;;;;;;;;;5065123;28;20450;-64
2023/01/11 13:43:35;;;;;;;;;;;;;;;;;;5068488;28;20388;-67
2023/01/11 13:46:04;;;;;;;;;;;;;;;;;;5067605;28;19924;-66
2023/01/11 13:48:30;;;;;;;;;;;;;;;;;;5066123;28;19951;-66
2023/01/11 13:50:56;;;;;;;;;;;;;;;;;;5066084;28;20353;-67
2023/01/11 13:53:21;;;;;;;;;;;;;;;;;;5068341;28;19916;-66
2023/01/11 13:55:47;;;;;;;;;;;;;;;;;;5068168;28;20590;-66
2023/01/11 13:58:13;;;;;;;;;;;;;;;;;;5068769;28;20000;-66
2023/01/11 14:00:39;;;;;;;;;;;;;;;;;;5067795;28;20451;-66
2023/01/11 14:03:05;;;;;;;;;;;;;;;;;;5067785;28;19916;-65
2023/01/11 14:05:31;;;;;;;;;;;;;;;;;;5068355;28;20379;-65
2023/01/11 14:07:59;;;;;;;;;;;;;;;;;;5067376;28;19921;-67
2023/01/11 14:10:25;;;;;;;;;;;;;;;;;;5067157;28;19912;-65
2023/01/11 14:12:51;;;;;;;;;;;;;;;;;;5066709;28;20010;-67
2023/01/11 14:15:17;;;;;;;;;;;;;;;;;;5067153;28;20232;-66
2023/01/11 14:17:43;;;;;;;;;;;;;;;;;;5063952;28;20027;-67
2023/01/11 14:20:09;;;;;;;;;;;;;;;;;;5065837;28;19956;-65
2023/01/11 14:22:35;;;;;;;;;;;;;;;;;;5065170;28;20341;-66
2023/01/11 14:25:00;;;;;;;;;;;;;;;;;;5066391;28;19912;-66
2023/01/11 14:27:26;;;;;;;;;;;;;;;;;;5068053;28;19917;-66
2023/01/11 14:29:57;;;;;;;;;;;;;;;;;;5048444;28;19920;-65
2023/01/11 14:32:23;;;;;;;;;;;;;;;;;;5066882;28;19974;-65
2023/01/11 14:34:49;;;;;;;;;;;;;;;;;;5067104;28;20351;-66
2023/01/11 14:37:15;;;;;;;;;;;;;;;;;;5039329;28;19925;-66
2023/01/11 14:39:41;;;;;;;;;;;;;;;;;;5067625;28;19920;-66
2023/01/11 14:42:07;;;;;;;;;;;;;;;;;;5068013;28;20296;-67
2023/01/11 14:44:33;;;;;;;;;;;;;;;;;;5067478;28;20508;-66
2023/01/11 14:46:59;;;;;;;;;;;;;;;;;;5067392;28;19960;-66
2023/01/11 14:49:25;;;;;;;;;;;;;;;;;;5067556;28;20003;-65
2023/01/11 14:51:51;;;;;;;;;;;;;;;;;;5067049;28;19917;-66
2023/01/11 14:54:18;;;;;;;;;;;;;;;;;;5067663;28;19912;-66
2023/01/11 14:56:44;;;;;;;;;;;;;;;;;;5067090;28;19931;-64
2023/01/11 14:59:10;;;;;;;;;;;;;;;;;;5066911;28;19916;-67
2023/01/11 15:01:36;;;;;;;;;;;;;;;;;;5066677;28;20664;-66
2023/01/11 15:04:02;;;;;;;;;;;;;;;;;;5067397;28;19917;-66
2023/01/11 15:06:27;;;;;;;;;;;;;;;;;;5066855;28;20363;-65
2023/01/11 15:08:53;;;;;;;;;;;;;;;;;;5066766;28;20945;-65
2023/01/11 15:11:19;;;;;;;;;;;;;;;;;;5067159;28;20030;-66
2023/01/11 15:13:45;;;;;;;;;;;;;;;;;;5066478;28;19967;-67
2023/01/11 15:18:55;;;;;;;;;;;;;;;;;;5066671;28;19923;-66
2023/01/11 15:21:21;;;;;;;;;;;;;;;;;;5066071;28;20300;-65
2023/01/11 15:23:47;;;;;;;;;;;;;;;;;;5066398;28;20007;-66
2023/01/11 15:26:13;;;;;;;;;;;;;;;;;;5064896;28;20634;-66
2023/01/11 15:28:39;;;;;;;;;;;;;;;;;;5066376;28;19924;-66
2023/01/11 15:31:05;;;;;;;;;;;;;;;;;;5066392;28;20461;-65
2023/01/11 15:33:31;;;;;;;;;;;;;;;;;;5065490;28;19920;-65
2023/01/11 15:35:56;;;;;;;;;;;;;;;;;;5065034;28;19917;-66
2023/01/11 15:38:22;;;;;;;;;;;;;;;;;;5065799;28;19921;-66
2023/01/11 15:40:49;;;;;;;;;;;;;;;;;;5066040;28;20027;-65
2023/01/11 15:43:15;;;;;;;;;;;;;;;;;;5066836;28;19919;-65
2023/01/11 15:46:51;;;;;;;;;;;;;;;;;;5067029;28;19917;-66
2023/01/11 15:48:27;;;;;;;;;;;;;;;;;;5070366;28;19969;-66
2023/01/11 15:50:53;;;;;;;;;;;;;;;;;;5070211;28;20031;-65
2023/01/11 15:53:18;;;;;;;;;;;;;;;;;;5070060;28;19912;-66
2023/01/11 15:55:46;;;;;;;;;;;;;;;;;;5070212;28;19916;-65
2023/01/11 15:58:12;;;;;;;;;;;;;;;;;;5070741;28;20593;-65
2023/01/11 16:00:38;;;;;;;;;;;;;;;;;;5069776;28;19916;-66
2023/01/11 16:03:04;;;;;;;;;;;;;;;;;;5070163;28;20121;-65
2023/01/11 16:05:30;;;;;;;;;;;;;;;;;;5070456;28;20015;-65
2023/01/11 16:07:56;;;;;;;;;;;;;;;;;;5069499;28;20337;-66
2023/01/11 16:10:22;;;;;;;;;;;;;;;;;;5070462;28;20104;-66
2023/01/11 16:12:48;;;;;;;;;;;;;;;;;;5069869;28;19975;-65
2023/01/11 16:15:14;;;;;;;;;;;;;;;;;;5069755;28;19916;-66
2023/01/11 16:17:40;;;;;;;;;;;;;;;;;;5070193;28;20295;-66
2023/01/11 16:20:06;;;;;;;;;;;;;;;;;;5069774;28;19916;-65
2023/01/11 16:22:32;;;;;;;;;;;;;;;;;;5069936;28;20296;-65
2023/01/11 16:24:58;;;;;;;;;;;;;;;;;;5069748;28;20024;-65
2023/01/11 16:27:25;;;;;;;;;;;;;;;;;;5070120;28;19916;-66
2023/01/11 16:29:51;;;;;;;;;;;;;;;;;;5067764;28;20349;-67
2023/01/11 16:32:17;;;;;;;;;;;;;;;;;;5069715;28;19916;-67
2023/01/11 16:34:43;;;;;;;;;;;;;;;;;;5069525;28;19913;-67
2023/01/11 16:37:09;;;;;;;;;;;;;;;;;;5069331;28;20039;-67
2023/01/11 16:39:35;;;;;;;;;;;;;;;;;;5069117;28;20110;-66
2023/01/11 16:42:02;;;;;;;;;;;;;;;;;;5069441;28;19928;-66
2023/01/11 16:44:27;;;;;;;;;;;;;;;;;;5068965;28;20491;-63
2023/01/11 16:46:53;;;;;;;;;;;;;;;;;;5068264;28;19924;-67
2023/01/11 16:49:19;;;;;;;;;;;;;;;;;;5069509;28;19917;-67
2023/01/11 16:51:45;;;;;;;;;;;;;;;;;;5068857;28;19990;-66
2023/01/11 16:54:11;;;;;;;;;;;;;;;;;;5069072;28;19913;-67
2023/01/11 16:56:37;;;;;;;;;;;;;;;;;;5067920;28;19916;-65
2023/01/11 16:59:03;;;;;;;;;;;;;;;;;;5068302;28;20015;-67
2023/01/11 17:01:29;;;;;;;;;;;;;;;;;;5070167;28;19940;-66
2023/01/11 17:03:55;;;;;;;;;;;;;;;;;;5070325;28;20031;-67
2023/01/11 17:06:21;;;;;;;;;;;;;;;;;;5071039;28;20692;-67
2023/01/11 17:08:48;;;;;;;;;;;;;;;;;;5071325;28;19916;-66